Time;durP1;ratioP1;P1;durP2;ratioP2;P2;SDS_P1;SDS_P2;PMS_P1;PMS_P2;Temp;Humidity;BMP_temperature;BMP_pressure;BME280_temperature;BME280_humidity;BME280_pressure;Samples;Min_cycle;Max_cycle;Signal;HPM_P1;HPM_P2
2022/06/10 00:01:04;;;;;;;16.80;5.40;;;;;;;12.98;82.52;101929.06;5054105;28;20516;-80
2022/06/10 00:03:30;;;;;;;14.00;5.27;;;;;;;12.94;82.62;101927.81;5054807;28;20369;-80
2022/06/10 00:06:01;;;;;;;12.87;5.00;;;;;;;12.90;82.95;101935.50;5037015;28;20025;-80
2022/06/10 00:08:29;;;;;;;15.97;5.33;;;;;;;12.84;82.82;101929.00;5054760;28;20088;-80
2022/06/10 00:10:55;;;;;;;16.53;6.67;;;;;;;12.81;83.03;101929.41;5037239;28;20040;-80
2022/06/10 00:13:23;;;;;;;22.73;8.90;;;;;;;12.85;82.90;101932.56;5054505;28;20102;-80
2022/06/10 00:15:49;;;;;;;22.57;9.33;;;;;;;12.84;83.42;101933.63;5054746;28;20029;-79
2022/06/10 00:18:16;;;;;;;25.20;9.23;;;;;;;12.83;83.60;101932.75;5054450;28;20103;-80
2022/06/10 00:20:42;;;;;;;23.93;9.17;;;;;;;12.82;83.17;101935.69;5054354;28;20029;-80
2022/06/10 00:23:08;;;;;;;25.90;9.53;;;;;;;12.87;83.26;101935.09;5034694;28;20517;-80
2022/06/10 00:25:34;;;;;;;26.37;10.27;;;;;;;12.89;83.45;101935.72;5054300;28;20116;-80
2022/06/10 00:28:00;;;;;;;25.10;10.53;;;;;;;12.90;83.25;101930.06;5054019;28;20049;-79
2022/06/10 00:30:29;;;;;;;25.33;9.33;;;;;;;12.92;83.23;101933.44;5057189;28;20434;-80
2022/06/10 00:32:55;;;;;;;20.93;8.33;;;;;;;12.82;83.03;101913.91;5055543;28;20033;-80
2022/06/10 00:35:21;;;;;;;21.03;7.60;;;;;;;12.95;82.84;101933.03;5073643;28;20025;-80
2022/06/10 00:37:46;;;;;;;21.63;8.40;;;;;;;12.94;82.75;101928.63;5065612;28;20420;-80
2022/06/10 00:40:20;;;;;;;22.87;9.10;;;;;;;12.90;83.13;101938.22;5052283;28;20111;-81
2022/06/10 00:42:45;;;;;;;23.63;8.38;;;;;;;12.89;83.29;101933.84;5052984;28;20063;-81
2022/06/10 00:45:48;;;;;;;21.47;9.00;;;;;;;12.91;83.11;101930.94;5053958;28;20032;-80
2022/06/10 00:48:18;;;;;;;16.37;6.40;;;;;;;12.89;83.26;101925.69;5063734;28;20083;-80
2022/06/10 00:50:46;;;;;;;17.23;6.10;;;;;;;12.87;83.48;101921.50;5035512;28;20036;-80
2022/06/10 00:53:15;;;;;;;12.07;5.13;;;;;;;12.88;83.29;101918.56;5067669;28;20056;-79
2022/06/10 00:55:43;;;;;;;14.40;5.40;;;;;;;12.82;83.82;101914.78;5051808;28;20029;-80
2022/06/10 00:58:18;;;;;;;14.20;5.20;;;;;;;12.88;83.78;101924.00;5053338;28;20036;-80
2022/06/10 01:00:44;;;;;;;15.07;5.70;;;;;;;12.79;84.18;101922.50;5053422;28;20090;-80
2022/06/10 01:03:10;;;;;;;18.03;5.90;;;;;;;12.80;84.34;101929.63;5055766;28;20045;-80
2022/06/10 01:05:35;;;;;;;18.03;7.17;;;;;;;12.79;84.44;101927.94;5052192;28;20025;-81
2022/06/10 01:08:15;;;;;;;21.07;8.20;;;;;;;12.77;84.53;101919.97;5052974;28;20037;-80
2022/06/10 01:10:58;;;;;;;20.67;8.43;;;;;;;12.76;84.69;101931.88;5053736;28;20067;-80
2022/06/10 01:13:53;;;;;;;19.57;7.50;;;;;;;12.71;84.25;101915.31;5053501;28;20361;-80
2022/06/10 01:16:30;;;;;;;18.27;6.13;;;;;;;12.78;84.40;101918.09;5053471;28;20016;-80
2022/06/10 01:19:37;;;;;;;15.13;5.87;;;;;;;12.81;84.20;101917.66;5052951;28;20075;-80
2022/06/10 01:22:09;;;;;;;13.13;5.40;;;;;;;12.80;83.98;101919.56;5042091;28;20047;-79
2022/06/10 01:24:45;;;;;;;14.47;5.80;;;;;;;12.82;83.82;101922.94;5073538;28;20043;-80
2022/06/10 01:30:32;;;;;;;18.00;6.80;;;;;;;12.87;83.96;101926.94;5073477;28;20047;-80
2022/06/10 01:33:26;;;;;;;18.53;7.60;;;;;;;12.89;83.91;101922.13;5073310;28;20057;-79
2022/06/10 01:36:10;;;;;;;22.05;8.40;;;;;;;12.90;83.71;101924.63;5053876;28;20060;-80
2022/06/10 01:38:49;;;;;;;25.45;7.97;;;;;;;12.92;83.39;101922.56;5072668;28;20072;-80
2022/06/10 01:41:33;;;;;;;16.20;6.13;;;;;;;12.95;83.05;101919.44;5063950;28;20484;-79
2022/06/10 01:44:13;;;;;;;12.88;4.80;;;;;;;12.99;83.02;101920.72;5035886;28;20054;-79
2022/06/10 01:46:55;;;;;;;13.50;4.80;;;;;;;13.04;82.54;101920.13;5050343;28;20091;-80
2022/06/10 01:49:31;;;;;;;14.70;4.80;;;;;;;13.06;82.76;101928.09;5052031;28;20067;-79
2022/06/10 01:52:04;;;;;;;13.97;5.17;;;;;;;13.08;82.48;101925.97;5057279;28;20368;-80
2022/06/10 01:55:01;;;;;;;18.20;6.45;;;;;;;13.12;82.68;101921.81;5056379;28;20028;-80
2022/06/10 01:57:43;;;;;;;21.00;7.30;;;;;;;13.10;83.64;101923.91;5053209;28;20052;-81
2022/06/10 02:00:15;;;;;;;14.57;6.23;;;;;;;13.14;82.84;101927.91;5053290;28;20041;-80
2022/06/10 02:02:48;;;;;;;14.20;5.10;;;;;;;13.10;82.28;101922.03;5053219;28;20055;-80
2022/06/10 02:05:19;;;;;;;17.23;5.20;;;;;;;13.11;83.09;101920.97;5053455;28;20090;-80
2022/06/10 02:07:53;;;;;;;15.30;4.80;;;;;;;13.13;82.72;101924.31;5053059;28;20104;-79
2022/06/10 02:10:18;;;;;;;;;;;;;;;13.23;82.23;101923.97;5056560;28;20033;-80
2022/06/10 02:12:49;;;;;;;13.43;4.87;;;;;;;13.20;82.41;101932.53;5053958;28;19915;-80
2022/06/10 02:15:23;;;;;;;18.40;6.00;;;;;;;13.18;82.41;101923.75;5056699;28;20112;-80
2022/06/10 02:18:05;;;;;;;21.00;6.17;;;;;;;13.25;82.80;101931.94;5064742;28;20365;-81
2022/06/10 02:20:32;;;;;;;18.17;5.87;;;;;;;13.25;83.08;101927.31;5064646;28;20626;-80
2022/06/10 02:23:00;;;;;;;20.17;6.47;;;;;;;13.23;83.05;101918.53;5057820;28;20025;-80
2022/06/10 02:25:30;;;;;;;21.67;7.90;;;;;;;13.28;82.68;101926.06;5037222;28;20043;-80
2022/06/10 02:28:04;;;;;;;18.40;7.90;;;;;;;13.31;82.56;101931.09;5035160;28;20017;-80
2022/06/10 02:30:38;;;;;;;18.37;7.13;;;;;;;13.29;83.12;101927.75;5057723;28;20082;-82
2022/06/10 02:33:04;;;;;;;18.70;5.97;;;;;;;13.34;82.18;101931.53;5054998;28;20043;-79
2022/06/10 02:35:48;;;;;;;17.50;5.27;;;;;;;13.38;82.29;101933.88;5055055;28;20033;-80
2022/06/10 02:38:31;;;;;;;13.90;5.20;;;;;;;13.39;82.36;101944.56;5053990;28;20052;-80
2022/06/10 02:41:22;;;;;;;18.07;6.00;;;;;;;13.43;82.15;101945.84;5053256;28;20029;-80
2022/06/10 02:44:00;;;;;;;18.13;5.17;;;;;;;13.47;82.03;101946.28;5060855;28;20025;-80
2022/06/10 02:47:00;;;;;;;15.57;5.17;;;;;;;13.46;81.59;101939.16;5055681;28;20025;-80
2022/06/10 02:49:27;;;;;;;16.20;5.33;;;;;;;13.49;81.96;101946.91;5073985;28;20579;-81
2022/06/10 02:51:52;;;;;;;22.50;7.77;;;;;;;13.51;81.27;101942.94;5054735;28;20060;-80
2022/06/10 02:54:25;;;;;;;20.80;7.07;;;;;;;13.54;81.90;101938.97;5052794;28;20029;-80
2022/06/10 02:56:51;;;;;;;19.77;6.40;;;;;;;13.53;81.81;101934.59;5053536;28;20048;-80
2022/06/10 03:02:39;;;;;;;13.93;4.57;;;;;;;13.58;81.50;101933.94;5054786;28;20060;-79
2022/06/10 03:05:19;;;;;;;15.67;3.90;;;;;;;13.57;81.53;101941.28;5068648;28;20777;-79
2022/06/10 03:08:01;;;;;;;18.33;5.53;;;;;;;13.59;82.05;101943.81;5042712;28;20032;-79
2022/06/10 03:10:36;;;;;;;18.50;6.53;;;;;;;13.61;82.38;101942.56;5054453;28;20024;-79
2022/06/10 03:13:26;;;;;;;21.13;6.73;;;;;;;13.63;82.09;101954.06;5054070;28;20021;-80
2022/06/10 03:16:30;;;;;;;18.63;7.37;;;;;;;13.65;81.96;101949.28;5067348;28;20059;-80
2022/06/10 03:19:01;;;;;;;22.30;6.80;;;;;;;13.67;81.92;101947.16;5068060;28;20087;-80
2022/06/10 03:22:00;;;;;;;18.43;5.93;;;;;;;13.70;82.41;101953.28;5051980;28;20124;-80
2022/06/10 03:24:45;;;;;;;18.90;5.77;;;;;;;13.73;82.27;101958.28;5054842;28;20028;-79
2022/06/10 03:27:27;;;;;;;13.45;4.28;;;;;;;13.75;81.82;101961.63;5058474;28;20074;-80
2022/06/10 03:30:05;;;;;;;15.27;4.23;;;;;;;13.76;82.74;101963.31;5054382;28;20064;-80
2022/06/10 03:32:43;;;;;;;14.53;4.13;;;;;;;13.77;82.77;101967.72;5052744;28;20032;-80
2022/06/10 03:35:27;;;;;;;12.37;3.50;;;;;;;13.77;82.63;101974.00;5040164;28;20039;-81
2022/06/10 03:37:53;;;;;;;9.75;3.63;;;;;;;13.78;83.11;101972.16;5052906;28;20017;-81
2022/06/10 03:40:22;;;;;;;10.53;3.27;;;;;;;13.75;83.99;101964.34;5058193;28;20079;-81
2022/06/10 03:42:52;;;;;;;13.30;3.40;;;;;;;13.80;84.19;101964.59;5054283;28;20055;-80
2022/06/10 03:45:21;;;;;;;12.33;3.30;;;;;;;13.81;83.97;101961.66;5054642;28;20066;-80
2022/06/10 03:47:46;;;;;;;13.90;3.00;;;;;;;13.80;83.76;101961.88;5054724;28;20020;-80
2022/06/10 03:50:16;;;;;;;11.37;3.23;;;;;;;13.81;84.37;101961.66;5054987;28;20036;-80
2022/06/10 03:52:45;;;;;;;13.43;3.30;;;;;;;13.80;84.83;101968.16;5054328;28;20029;-80
2022/06/10 03:55:18;;;;;;;13.97;3.10;;;;;;;13.81;84.46;101964.38;5053799;28;20025;-80
2022/06/10 03:57:45;;;;;;;15.80;4.40;;;;;;;13.82;84.14;101959.78;5054599;28;20086;-80
2022/06/10 04:00:24;;;;;;;16.33;5.00;;;;;;;13.85;85.13;101970.25;5053228;28;20494;-80
2022/06/10 04:02:51;;;;;;;16.37;5.03;;;;;;;13.84;84.66;101974.88;5053990;28;20469;-80
2022/06/10 04:05:17;;;;;;;13.50;4.10;;;;;;;13.90;83.91;101975.09;5053421;28;20029;-80
2022/06/10 04:07:43;;;;;;;11.17;3.33;;;;;;;13.92;84.26;101978.44;5035057;28;20098;-80
2022/06/10 04:10:16;;;;;;;10.07;3.23;;;;;;;13.95;83.60;101978.88;5073617;28;20037;-80
2022/06/10 04:12:41;;;;;;;16.10;4.43;;;;;;;13.95;83.27;101987.06;5057866;28;20095;-80
2022/06/10 04:15:08;;;;;;;15.53;4.20;;;;;;;13.95;83.27;101980.75;5053076;28;20036;-80
2022/06/10 04:17:33;;;;;;;14.40;4.03;;;;;;;13.91;84.14;101990.38;5054576;28;20054;-80
2022/06/10 04:19:59;;;;;;;16.03;5.13;;;;;;;13.88;85.22;101991.63;5071939;28;20028;-79
2022/06/10 04:22:26;;;;;;;15.90;6.20;;;;;;;13.85;85.88;101995.59;5032989;28;20049;-80
2022/06/10 04:24:51;;;;;;;13.77;3.97;;;;;;;13.87;85.44;101991.84;5053765;28;20021;-79
2022/06/10 04:27:17;;;;;;;13.23;4.00;;;;;;;13.82;85.04;101987.84;5048140;28;20119;-79
2022/06/10 04:29:42;;;;;;;14.20;4.00;;;;;;;13.81;85.97;101999.78;5054532;28;20068;-80
2022/06/10 04:32:08;;;;;;;14.70;3.70;;;;;;;13.82;86.15;101997.94;5055547;28;20021;-80
2022/06/10 04:34:34;;;;;;;11.63;3.70;;;;;;;13.74;85.29;101989.94;5037191;28;20364;-80
2022/06/10 04:36:59;;;;;;;12.90;4.27;;;;;;;13.83;86.24;101999.59;5060354;28;20029;-80
2022/06/10 04:39:24;;;;;;;16.00;5.60;;;;;;;13.84;86.19;101993.09;5051687;28;20536;-80
2022/06/10 04:41:50;;;;;;;16.80;6.00;;;;;;;13.87;86.42;101986.41;5051301;28;20028;-79
2022/06/10 04:44:17;;;;;;;18.37;5.23;;;;;;;13.93;85.62;101997.31;5053188;28;20116;-79
2022/06/10 04:46:45;;;;;;;18.60;4.20;;;;;;;13.96;85.98;101987.91;5050759;28;20472;-80
2022/06/10 04:49:10;;;;;;;16.67;3.90;;;;;;;14.02;85.93;101993.34;5049985;28;20033;-80
2022/06/10 04:51:36;;;;;;;14.97;3.83;;;;;;;14.06;84.86;101998.38;5058944;28;20102;-80
2022/06/10 04:54:03;;;;;;;17.40;3.90;;;;;;;14.05;85.41;101981.22;5053513;28;20025;-80
2022/06/10 04:56:30;;;;;;;14.67;4.10;;;;;;;14.12;85.61;101995.69;5034888;28;20473;-79
2022/06/10 04:58:56;;;;;;;12.43;3.43;;;;;;;14.10;85.64;101989.59;5052363;28;20028;-80
2022/06/10 05:01:21;;;;;;;12.13;3.37;;;;;;;14.19;85.08;101998.41;5053059;28;20029;-79
2022/06/10 05:03:47;;;;;;;18.00;4.20;;;;;;;14.14;85.44;101985.41;5053458;28;20029;-79
2022/06/10 05:06:12;;;;;;;12.27;3.47;;;;;;;14.22;85.90;101989.81;5051375;28;20469;-80
2022/06/10 05:08:38;;;;;;;15.37;4.13;;;;;;;14.28;86.31;101986.25;5053719;28;20361;-79
2022/06/10 05:11:03;;;;;;;12.20;3.33;;;;;;;14.31;85.23;101990.47;5051709;28;20025;-79
2022/06/10 05:13:28;;;;;;;13.03;3.40;;;;;;;14.30;85.32;101984.16;5050719;28;20052;-79
2022/06/10 05:15:55;;;;;;;15.47;3.43;;;;;;;14.33;84.86;101983.75;5052915;28;20064;-80
2022/06/10 05:18:22;;;;;;;14.70;3.50;;;;;;;14.43;84.83;101993.38;5051300;28;20358;-79
2022/06/10 05:20:48;;;;;;;13.93;3.77;;;;;;;14.42;84.88;101980.81;5051827;28;20029;-79
2022/06/10 05:23:16;;;;;;;18.03;4.23;;;;;;;14.48;85.19;101980.81;5058354;28;20062;-80
2022/06/10 05:25:42;;;;;;;15.17;4.07;;;;;;;14.38;85.95;101971.38;5052512;28;20079;-79
2022/06/10 05:28:09;;;;;;;20.67;4.47;;;;;;;14.50;85.46;101994.25;5052973;28;20044;-80
2022/06/10 05:30:35;;;;;;;14.90;4.70;;;;;;;14.55;85.17;101985.41;5050864;28;20611;-80
2022/06/10 05:33:03;;;;;;;18.70;4.63;;;;;;;14.56;85.35;101987.94;5051167;28;20036;-79
2022/06/10 05:35:29;;;;;;;14.60;4.40;;;;;;;14.56;84.59;101981.66;5052140;28;20044;-80
2022/06/10 05:37:55;;;;;;;16.43;4.63;;;;;;;14.61;85.09;101984.59;5050680;28;20029;-80
2022/06/10 05:40:22;;;;;;;17.40;4.87;;;;;;;14.63;85.63;101977.06;5053641;28;20040;-80
2022/06/10 05:42:48;;;;;;;16.57;4.53;;;;;;;14.65;85.67;101978.53;5052606;28;20109;-80
2022/06/10 05:45:17;;;;;;;15.10;4.40;;;;;;;14.63;84.81;101979.78;5055991;28;20054;-81
2022/06/10 05:47:44;;;;;;;15.23;4.20;;;;;;;14.67;84.65;101979.16;5038506;28;20392;-80
2022/06/10 05:50:17;;;;;;;16.97;4.40;;;;;;;14.74;84.28;101994.66;5055975;28;20021;-79
2022/06/10 05:52:42;;;;;;;13.57;4.23;;;;;;;14.79;84.52;101983.97;5049517;28;20039;-80
2022/06/10 05:55:10;;;;;;;11.50;4.30;;;;;;;14.85;84.35;101988.59;5056482;28;20029;-80
2022/06/10 05:57:37;;;;;;;13.63;4.17;;;;;;;14.89;83.74;101995.28;5046973;28;20174;-80
2022/06/10 06:00:05;;;;;;;9.77;4.13;;;;;;;14.95;84.06;101991.69;5071946;28;20081;-80
2022/06/10 06:02:31;;;;;;;12.63;4.10;;;;;;;15.00;84.11;101988.31;5043246;28;20052;-80
2022/06/10 06:04:58;;;;;;;16.03;3.63;;;;;;;15.07;84.32;101988.31;5043400;28;20105;-81
2022/06/10 06:07:27;;;;;;;12.67;3.50;;;;;;;15.07;84.32;101982.84;5042182;28;20048;-80
2022/06/10 06:09:53;;;;;;;13.30;3.70;;;;;;;15.16;83.20;101989.75;5040374;28;20136;-80
2022/06/10 06:12:20;;;;;;;13.93;3.80;;;;;;;15.25;83.53;101990.38;5043607;28;20109;-80
2022/06/10 06:14:46;;;;;;;15.67;3.93;;;;;;;15.31;83.11;101989.50;5041972;28;20037;-81
2022/06/10 06:17:13;;;;;;;11.73;3.80;;;;;;;15.36;82.90;102004.16;5027726;28;20048;-81
2022/06/10 06:19:39;;;;;;;14.33;3.73;;;;;;;15.43;82.49;102004.16;5042324;28;20033;-80
2022/06/10 06:22:04;;;;;;;15.33;3.90;;;;;;;15.42;81.63;102001.63;5027861;28;20039;-80
2022/06/10 06:24:30;;;;;;;7.93;3.10;;;;;;;15.43;81.19;101998.69;5042930;28;20044;-80
2022/06/10 06:26:56;;;;;;;12.07;3.60;;;;;;;15.52;82.73;101994.66;5042720;28;20041;-81
2022/06/10 06:29:23;;;;;;;9.97;3.00;;;;;;;15.57;81.80;102004.97;5042156;28;20052;-80
2022/06/10 06:31:52;;;;;;;11.60;3.50;;;;;;;15.64;81.84;102002.16;5043160;28;20033;-80
2022/06/10 06:34:18;;;;;;;9.47;3.07;;;;;;;15.70;81.69;102004.88;5042769;28;20041;-80
2022/06/10 06:36:46;;;;;;;10.40;2.97;;;;;;;15.79;81.21;102004.63;5043659;28;20037;-80
2022/06/10 06:39:13;;;;;;;10.30;3.30;;;;;;;15.85;80.65;102001.06;5041682;28;20033;-80
2022/06/10 06:41:39;;;;;;;10.40;3.27;;;;;;;15.86;79.63;101994.53;5024449;28;20049;-81
2022/06/10 06:44:05;;;;;;;10.90;3.03;;;;;;;15.92;80.39;102007.31;5040211;28;20055;-81
2022/06/10 06:46:32;;;;;;;11.70;3.20;;;;;;;15.95;79.40;102006.88;5049420;28;20025;-81
2022/06/10 06:48:57;;;;;;;12.10;2.93;;;;;;;16.03;79.40;102011.25;5055375;28;20049;-81
2022/06/10 06:51:23;;;;;;;10.70;2.60;;;;;;;16.00;78.50;102012.50;5054512;28;20147;-82
2022/06/10 06:53:48;;;;;;;10.37;3.00;;;;;;;16.12;79.37;102014.56;5053974;28;20043;-81
2022/06/10 06:56:14;;;;;;;13.03;3.07;;;;;;;16.16;79.23;102019.34;5055967;28;20159;-81
2022/06/10 06:58:39;;;;;;;8.50;2.70;;;;;;;16.20;79.36;102009.66;5037499;28;20036;-82
2022/06/10 07:01:05;;;;;;;8.37;2.97;;;;;;;16.29;78.83;102025.78;5053601;28;20047;-81
2022/06/10 07:03:30;;;;;;;11.07;3.13;;;;;;;16.31;78.22;102029.97;5058522;28;20025;-82
2022/06/10 07:05:55;;;;;;;10.57;2.70;;;;;;;16.37;77.99;102022.78;5053738;28;20051;-81
2022/06/10 07:08:21;;;;;;;10.67;2.77;;;;;;;16.41;77.97;102025.91;5059891;28;20021;-81
2022/06/10 07:10:47;;;;;;;10.53;2.77;;;;;;;16.39;77.54;102020.69;5067047;28;20150;-81
2022/06/10 07:13:12;;;;;;;9.10;2.60;;;;;;;16.45;78.04;102025.25;5055210;28;20029;-82
2022/06/10 07:15:42;;;;;;;11.27;2.50;;;;;;;16.47;77.17;102019.53;5036007;28;20028;-83
2022/06/10 07:18:07;;;;;;;7.90;2.37;;;;;;;16.52;77.21;102017.84;5036748;28;20436;-81
2022/06/10 07:20:36;;;;;;;10.40;2.40;;;;;;;16.62;77.02;102016.47;5049426;28;20064;-81
2022/06/10 07:23:02;;;;;;;9.03;2.50;;;;;;;16.71;76.88;102010.53;5069320;28;20087;-82
2022/06/10 07:25:29;;;;;;;8.83;2.40;;;;;;;16.78;77.21;102015.94;5055103;28;20469;-81
2022/06/10 07:27:55;;;;;;;8.77;2.50;;;;;;;16.82;76.37;102003.47;5056130;28;20032;-82
2022/06/10 07:30:23;;;;;;;11.30;2.40;;;;;;;16.98;76.47;102020.41;5075577;28;20103;-81
2022/06/10 07:32:49;;;;;;;8.20;2.33;;;;;;;17.02;75.24;102021.63;5059184;28;20091;-81
2022/06/10 07:35:17;;;;;;;10.50;2.53;;;;;;;17.11;75.48;102022.16;5053703;28;20025;-81
2022/06/10 07:37:42;;;;;;;9.00;2.50;;;;;;;17.17;74.62;102013.03;5052898;28;20029;-82
2022/06/10 07:41:56;;;;;;;13.57;2.73;;;;;;;17.27;74.01;102026.19;5053687;28;20029;-81
2022/06/10 07:42:54;;;;;;;12.43;2.20;;;;;;;17.30;74.32;102029.31;5053606;28;20033;-81
2022/06/10 07:45:19;;;;;;;10.53;2.40;;;;;;;17.34;72.08;102019.59;5052761;28;20086;-82
2022/06/10 07:47:45;;;;;;;12.43;2.70;;;;;;;17.40;73.06;102022.47;5054383;28;20362;-82
2022/06/10 07:50:10;;;;;;;11.13;3.03;;;;;;;17.50;72.41;102017.28;5057195;28;20024;-82
2022/06/10 07:52:36;;;;;;;10.33;2.20;;;;;;;17.60;71.61;102020.34;5049961;28;20132;-84
2022/06/10 07:55:01;;;;;;;8.33;2.50;;;;;;;17.71;72.28;102030.50;5044738;28;20050;-80
2022/06/10 07:57:26;;;;;;;8.13;2.17;;;;;;;17.81;71.25;102023.63;5051407;28;20488;-82
2022/06/10 07:59:53;;;;;;;6.80;2.27;;;;;;;17.74;70.04;102012.75;5053381;28;20064;-81
2022/06/10 08:02:18;;;;;;;8.03;2.40;;;;;;;17.85;70.81;102011.16;5051523;28;20065;-81
2022/06/10 08:04:44;;;;;;;6.63;2.20;;;;;;;17.79;70.06;102014.78;5043576;28;20613;-81
2022/06/10 08:07:09;;;;;;;9.83;2.40;;;;;;;17.69;69.17;102013.47;5050490;28;20036;-80
2022/06/10 08:09:35;;;;;;;5.93;2.17;;;;;;;17.75;69.22;102008.97;5052341;28;20041;-81
2022/06/10 08:12:00;;;;;;;7.10;2.30;;;;;;;17.70;69.24;102023.34;5053718;28;20056;-81
2022/06/10 08:14:26;;;;;;;7.87;2.43;;;;;;;17.76;69.54;102026.22;5053364;28;20060;-80
2022/06/10 08:16:53;;;;;;;6.37;2.10;;;;;;;17.81;68.64;102024.47;5053218;28;20094;-82
2022/06/10 08:19:18;;;;;;;10.93;2.43;;;;;;;17.83;69.84;102025.09;5050528;28;20056;-81
2022/06/10 08:24:28;;;;;;;9.43;2.78;;;;;;;18.04;69.41;102023.75;5067586;28;20075;-80
2022/06/10 08:26:53;;;;;;;5.43;1.83;;;;;;;18.05;68.07;102022.69;5061518;28;20052;-81
2022/06/10 08:29:19;;;;;;;7.83;2.47;;;;;;;18.03;67.35;102021.25;5056980;28;20477;-81
2022/06/10 08:31:45;;;;;;;7.63;2.20;;;;;;;18.01;67.43;102032.44;5050541;28;20044;-81
2022/06/10 08:34:11;;;;;;;7.03;2.37;;;;;;;18.05;68.04;102024.59;5038290;28;20032;-81
2022/06/10 08:36:37;;;;;;;8.33;2.40;;;;;;;18.20;65.58;102024.19;5034812;28;20024;-80
2022/06/10 08:39:03;;;;;;;9.60;2.33;;;;;;;18.23;66.72;102023.69;5051393;28;20078;-80
2022/06/10 08:41:43;;;;;;;9.90;2.67;;;;;;;18.34;66.39;102031.09;5047894;28;20049;-83
2022/06/10 08:44:14;;;;;;;9.67;2.43;;;;;;;18.36;65.62;102031.72;5039937;28;20055;-81
2022/06/10 08:46:57;;;;;;;8.13;3.00;;;;;;;18.35;65.40;102021.81;5022894;28;20119;-82
2022/06/10 08:50:01;;;;;;;6.03;1.90;;;;;;;18.51;66.01;102027.72;5040047;28;21181;-81
2022/06/10 08:52:39;;;;;;;6.83;2.13;;;;;;;18.42;65.68;102018.97;5005057;28;20306;-81
2022/06/10 08:55:36;;;;;;;11.20;2.30;;;;;;;18.42;65.74;102016.22;5039967;28;20408;-82
2022/06/10 08:58:12;;;;;;;9.63;2.30;;;;;;;18.39;64.63;102008.47;5040093;28;20182;-81
2022/06/10 09:00:40;;;;;;;10.90;3.33;;;;;;;18.52;66.09;102010.16;5040415;28;20131;-80
2022/06/10 09:03:19;;;;;;;10.03;2.80;;;;;;;18.62;67.11;102013.16;5041352;28;20057;-81
2022/06/10 09:05:50;;;;;;;11.30;3.60;;;;;;;18.59;65.87;102019.13;5040299;28;20112;-82
2022/06/10 09:08:26;;;;;;;14.80;3.20;;;;;;;18.67;66.42;102016.03;5041191;28;20079;-82
2022/06/10 09:10:59;;;;;;;12.48;3.00;;;;;;;18.68;64.88;102006.69;5039848;28;20098;-82
2022/06/10 09:13:34;;;;;;;11.55;3.08;;;;;;;18.85;65.27;102022.47;5040825;28;20345;-82
2022/06/10 09:16:16;;;;;;;10.27;2.90;;;;;;;18.92;66.18;102020.47;5040947;28;20279;-82
2022/06/10 09:19:16;;;;;;;11.17;2.80;;;;;;;19.05;64.98;102022.13;5044903;28;20175;-82
2022/06/10 09:22:17;;;;;;;8.70;2.53;;;;;;;19.12;64.98;102025.59;5043317;28;20541;-82
2022/06/10 09:25:06;;;;;;;12.45;3.00;;;;;;;19.39;62.71;102025.91;5010856;28;20052;-83
2022/06/10 09:27:36;;;;;;;8.80;2.53;;;;;;;19.42;64.00;102031.97;5044603;28;20033;-81
2022/06/10 09:30:04;;;;;;;9.93;3.10;;;;;;;19.38;63.60;102023.41;5043493;28;20033;-85
2022/06/10 09:32:44;;;;;;;13.68;3.08;;;;;;;19.52;62.68;102027.53;5043864;28;20041;-83
2022/06/10 09:35:12;;;;;;;9.95;2.70;;;;;;;19.76;64.63;102019.22;5044281;28;20028;-83
2022/06/10 09:37:44;;;;;;;12.68;3.08;;;;;;;20.17;63.09;102032.94;5043788;28;20063;-82
2022/06/10 09:40:36;;;;;;;12.15;2.67;;;;;;;20.35;62.64;102020.88;5042953;28;20702;-83
2022/06/10 09:43:30;;;;;;;10.25;2.70;;;;;;;20.68;61.43;102027.44;5043900;28;20090;-82
2022/06/10 09:46:14;;;;;;;13.38;3.00;;;;;;;20.87;60.97;102023.34;5039709;28;20041;-83
2022/06/10 09:48:48;;;;;;;10.48;2.78;;;;;;;21.03;59.32;102021.66;5043320;28;20044;-82
2022/06/10 09:51:25;;;;;;;;;;;;;;;21.47;61.08;102025.56;5044232;28;20044;-81
2022/06/10 09:54:23;;;;;;;11.85;2.83;;;;;;;21.31;59.65;102025.38;5044678;28;20372;-84
2022/06/10 09:57:25;;;;;;;9.52;2.30;;;;;;;21.68;60.92;102027.50;5026597;28;20063;-80
2022/06/10 09:59:59;;;;;;;8.63;2.70;;;;;;;21.47;59.52;102017.28;5044571;28;20067;-82
2022/06/10 10:02:28;;;;;;;;;;;;;;;21.71;60.22;102028.91;5047238;28;20467;-79
2022/06/10 10:05:35;;;;;;;7.53;2.78;;;;;;;21.50;60.18;102028.63;5068205;28;19912;-81
2022/06/10 10:08:37;;;;;;;9.65;3.03;;;;;;;21.23;60.31;102026.63;5037150;28;20534;-79
2022/06/10 10:11:11;;;;;;;9.05;2.85;;;;;;;21.06;58.98;102032.16;5028700;28;20610;-81
2022/06/10 10:13:48;;;;;;;11.90;3.00;;;;;;;21.07;61.08;102027.50;5041428;28;20029;-79
2022/06/10 10:16:26;;;;;;;8.30;2.95;;;;;;;21.06;62.61;102018.41;5042844;28;20515;-80
2022/06/10 10:19:20;;;;;;;11.23;3.10;;;;;;;21.14;61.42;102021.81;5042401;28;20032;-81
2022/06/10 10:22:19;;;;;;;9.73;3.10;;;;;;;21.25;59.92;102026.38;5043666;28;20530;-81
2022/06/10 10:24:45;;;;;;;9.88;3.10;;;;;;;21.31;60.00;102027.28;5042975;28;20037;-82
2022/06/10 10:27:20;;;;;;;13.05;3.38;;;;;;;21.22;60.64;102011.19;5042313;28;20040;-80
2022/06/10 10:29:52;;;;;;;11.23;3.22;;;;;;;21.29;60.39;102024.78;5042477;28;20045;-83
2022/06/10 10:32:22;;;;;;;7.85;3.03;;;;;;;21.25;60.08;102018.09;5043256;28;20025;-82
2022/06/10 10:34:57;;;;;;;9.52;3.20;;;;;;;21.38;60.12;102014.97;5024933;28;20037;-82
2022/06/10 10:37:27;;;;;;;10.38;3.38;;;;;;;21.36;59.81;102021.84;5023948;28;20428;-83
2022/06/10 10:39:59;;;;;;;10.18;3.10;;;;;;;21.43;60.98;102011.44;5044745;28;20024;-83
2022/06/10 10:42:35;;;;;;;11.10;3.35;;;;;;;21.91;59.04;102009.81;5043789;28;20124;-83
2022/06/10 10:45:05;;;;;;;10.50;3.55;;;;;;;22.19;59.20;102020.84;5041780;28;20036;-84
2022/06/10 10:47:32;;;;;;;9.18;3.15;;;;;;;22.35;59.17;102014.38;5041827;28;21705;-84
2022/06/10 10:50:04;;;;;;;10.93;3.50;;;;;;;22.46;58.33;102007.03;5027494;28;20040;-85
2022/06/10 10:52:32;;;;;;;14.57;4.35;;;;;;;22.80;56.88;102008.66;5042172;28;20073;-86
2022/06/10 10:55:14;;;;;;;11.95;3.85;;;;;;;22.73;56.37;102012.47;5043095;28;20119;-84
2022/06/10 10:57:45;;;;;;;11.43;3.67;;;;;;;22.50;57.20;102012.84;5041507;28;20464;-84
2022/06/10 11:00:16;;;;;;;11.38;3.30;;;;;;;22.34;57.75;102026.53;5049061;28;20461;-84
2022/06/10 11:02:48;;;;;;;13.05;3.63;;;;;;;22.04;58.59;102013.25;5056513;28;20427;-85
2022/06/10 11:05:19;;;;;;;10.82;4.30;;;;;;;21.81;58.94;102011.63;5051133;28;20083;-83
2022/06/10 11:07:46;;;;;;;11.48;3.15;;;;;;;21.80;59.03;102013.56;5054120;28;20055;-83
2022/06/10 11:10:23;;;;;;;11.40;3.33;;;;;;;21.78;59.43;102017.69;5057167;28;20028;-82
2022/06/10 11:12:49;;;;;;;12.63;4.07;;;;;;;21.60;59.17;102014.16;5053076;28;20025;-83
2022/06/10 11:15:29;;;;;;;13.18;4.28;;;;;;;21.49;60.50;102017.88;5055011;28;20029;-82
2022/06/10 11:17:57;;;;;;;12.57;3.80;;;;;;;21.45;60.08;102016.72;5051665;28;20020;-83
2022/06/10 11:20:36;;;;;;;8.85;3.55;;;;;;;21.40;61.23;102009.19;5056759;28;20025;-83
2022/06/10 11:23:16;;;;;;;12.02;4.20;;;;;;;21.33;60.83;102012.16;5053580;28;20032;-83
2022/06/10 11:25:42;;;;;;;10.23;3.53;;;;;;;21.22;62.10;102013.94;5052045;28;20068;-83
2022/06/10 11:28:21;;;;;;;11.38;3.60;;;;;;;21.36;62.01;102013.56;5053236;28;20444;-83
2022/06/10 11:30:49;;;;;;;12.40;3.90;;;;;;;21.68;61.62;102008.19;5051647;28;20079;-83
2022/06/10 11:33:32;;;;;;;12.40;4.13;;;;;;;22.06;61.09;102017.41;5044496;28;20437;-84
2022/06/10 11:36:23;;;;;;;12.98;3.35;;;;;;;22.34;61.21;102012.72;5050670;28;20028;-84
2022/06/10 11:39:08;;;;;;;13.18;3.92;;;;;;;22.47;59.49;102007.88;5044833;28;20110;-85
2022/06/10 11:42:13;;;;;;;9.73;4.18;;;;;;;22.59;60.23;102006.56;5048489;28;20464;-85
2022/06/10 11:44:54;;;;;;;12.40;4.03;;;;;;;22.70;61.06;101996.44;5055736;28;20361;-84
2022/06/10 11:47:29;;;;;;;13.75;3.58;;;;;;;22.56;60.05;101996.06;5052375;28;20020;-84
2022/06/10 11:50:19;;;;;;;13.35;3.83;;;;;;;22.61;59.48;102002.72;5051237;28;20029;-85
2022/06/10 11:53:07;;;;;;;12.18;4.03;;;;;;;22.89;60.81;101994.06;5058453;28;20017;-86